Archie Wilson — WDD4935 — position and weather

sailwx.info

Track history (hours):
 
Tides and Currents Weather Stations Pressure Air Temp Water Temp Dewpoint Dewpoint Depression Visibility Wind Speed Wind Dir Waves Ship Positions

Archie Wilson

Owner: Kirby Inland Marine LP, Houston, TX. More information available from US FCC via Universal Licensing System and Coast Guard Vessel Documentation Center.

Last reported at 2018-Jun-20 02:28 UTC. Time now 2018-Jun-20 22:48 UTC.
Position N 29°46' W 095°05'.

Length 109 m; draft 2.7 m.

Type: . MMSI: 367151380.

Date/timePositionNaut miles runAvg speedWind from/ knotsBaromVisibWave heightAir tempDewpointWater temp
2018-Jun-20 02:28N 29°46' W 095°05'0 0.4
2018-Jun-20 01:48N 29°46' W 095°06'0 0.8
2018-Jun-20 01:28N 29°46' W 095°06'6 6.9
2018-Jun-20 00:40N 29°42' W 095°01'2 8.9
2018-Jun-20 00:29N 29°42' W 094°59'5 9.4
2018-Jun-20 00:00N 29°37' W 094°57'1310.1
2018-Jun-19 22:44N 29°26' W 094°50'210.3
2018-Jun-19 22:29N 29°24' W 094°49'3 5.2
2018-Jun-19 21:59N 29°23' W 094°46'3 6.2
2018-Jun-19 21:30N 29°25' W 094°44'7 6.5
2018-Jun-19 20:21N 29°29' W 094°36'5 7.5
2018-Jun-19 19:45N 29°31' W 094°31'2 7.4
2018-Jun-19 19:28N 29°32' W 094°29'3 7.1
2018-Jun-19 19:00N 29°34' W 094°26'2 3.5
2018-Jun-19 18:30N 29°35' W 094°25'0 0.4
2018-Jun-19 18:00N 29°35' W 094°25'3 6.1
2018-Jun-19 17:30N 29°36' W 094°22'4 7.9
2018-Jun-19 17:00N 29°38' W 094°18'4 8.0
2018-Jun-19 16:30N 29°40' W 094°14'4 8.0
2018-Jun-19 16:00N 29°42' W 094°09'4 8.2
2018-Jun-19 15:30N 29°44' W 094°06'4 8.2
2018-Jun-19 15:00N 29°47' W 094°02'4 7.5
2018-Jun-19 14:30N 29°49' W 093°59'3 6.6
2018-Jun-19 14:00N 29°52' W 093°56'4 8.8
2018-Jun-19 13:30N 29°55' W 093°53'2 3.6
2018-Jun-19 13:00N 29°57' W 093°52'3 6.7
2018-Jun-19 12:30N 29°59' W 093°49'5 9.7
2018-Jun-19 12:00N 30°01' W 093°44'4 7.4
2018-Jun-19 11:30N 30°04' W 093°41'3 6.3
2018-Jun-19 11:00N 30°04' W 093°37'3 6.3
2018-Jun-19 10:29N 30°04' W 093°34'3 6.2
2018-Jun-19 10:00N 30°04' W 093°30'1 1.6
2018-Jun-19 09:30N 30°04' W 093°29'0 0.0
2018-Jun-19 09:00N 30°04' W 093°29'0 0.0
2018-Jun-19 08:30N 30°04' W 093°29'0 0.1
2018-Jun-19 08:00N 30°04' W 093°29'1 2.5
2018-Jun-19 07:30N 30°04' W 093°28'2 4.6
2018-Jun-19 07:00N 30°04' W 093°25'2 3.7
2018-Jun-19 06:30N 30°04' W 093°23'2 3.2
2018-Jun-19 06:00N 30°04' W 093°21'2 3.5
2018-Jun-19 05:30N 30°05' W 093°20'1 3.0
2018-Jun-19 05:00N 30°06' W 093°18'1 2.0
2018-Jun-19 04:30N 30°05' W 093°17'1 1.6
2018-Jun-19 04:00N 30°05' W 093°17'1 1.4
2018-Jun-19 03:30N 30°04' W 093°16'0 0.3
2018-Jun-19 03:00N 30°04' W 093°16'0 0.0
2018-Jun-19 02:30N 30°04' W 093°16'0 0.0
2018-Jun-19 02:00N 30°04' W 093°16'0 0.0
2018-Jun-19 01:30N 30°04' W 093°16'0 0.0
2018-Jun-19 01:00N 30°04' W 093°16'0 0.0
2018-Jun-19 00:30N 30°04' W 093°16'0 0.0
2018-Jun-19 00:00N 30°04' W 093°16'0 0.0
2018-Jun-18 23:30N 30°04' W 093°16'0 0.0
2018-Jun-18 23:00N 30°04' W 093°16'0 0.0
2018-Jun-18 22:30N 30°04' W 093°16'0 0.0
2018-Jun-18 22:00N 30°04' W 093°16'0 0.0
2018-Jun-18 21:30N 30°04' W 093°16'0 0.0
2018-Jun-18 21:01N 30°04' W 093°16'0 0.0
2018-Jun-18 20:30N 30°04' W 093°16'0 0.0
2018-Jun-18 20:00N 30°04' W 093°16'0 0.0
2018-Jun-18 19:30N 30°04' W 093°16'0 0.0
2018-Jun-18 19:00N 30°04' W 093°16'0 0.0
2018-Jun-18 18:30N 30°04' W 093°16'0 0.0
2018-Jun-18 18:00N 30°04' W 093°16'0 0.0
2018-Jun-18 17:30N 30°04' W 093°16'0 0.0
2018-Jun-18 17:00N 30°04' W 093°16'0 0.0
2018-Jun-18 16:30N 30°04' W 093°16'0 0.0
2018-Jun-18 16:00N 30°04' W 093°16'0 0.0
2018-Jun-18 15:30N 30°04' W 093°16'0 0.0
2018-Jun-18 15:00N 30°04' W 093°16'0 0.0
2018-Jun-18 14:30N 30°04' W 093°16'0 0.0
2018-Jun-18 14:00N 30°04' W 093°16'0 0.0
2018-Jun-18 13:30N 30°04' W 093°16'0 0.0
2018-Jun-18 13:00N 30°04' W 093°16'0 0.0
2018-Jun-18 12:30N 30°04' W 093°16'0 0.5
2018-Jun-18 12:00N 30°04' W 093°16'1 2.9
2018-Jun-18 11:30N 30°02' W 093°16'3 5.2
2018-Jun-18 11:00N 30°00' W 093°14'2 4.0
2018-Jun-18 10:30N 29°59' W 093°12'0 0.1
2018-Jun-18 10:00N 29°59' W 093°12'0 0.1
2018-Jun-18 09:30N 29°59' W 093°12'0 0.0
2018-Jun-18 09:00N 29°59' W 093°12'0 0.0
2018-Jun-18 08:30N 29°59' W 093°12'0 0.0
2018-Jun-18 08:00N 29°59' W 093°12'0 0.0
2018-Jun-18 07:30N 29°59' W 093°12'0 0.0
2018-Jun-18 07:00N 29°59' W 093°12'0 0.1
2018-Jun-18 06:30N 29°59' W 093°12'3 5.1
2018-Jun-18 06:00N 29°57' W 093°10'3 5.1
2018-Jun-18 05:29N 29°56' W 093°07'3 5.4
2018-Jun-18 04:59N 29°56' W 093°04'32 3.0
2018-Jun-17 18:31N 29°54' W 092°28'0 5.7
2018-Jun-17 18:30N 29°54' W 092°28'3 5.8
2018-Jun-17 18:00N 29°53' W 092°24'3 5.3
2018-Jun-17 17:26N 29°51' W 092°22'2 4.7
2018-Jun-17 16:59N 29°50' W 092°19'0 0.4
2018-Jun-17 16:30N 29°50' W 092°19'2 4.5
2018-Jun-17 16:01N 29°49' W 092°17'3 5.6
2018-Jun-17 15:30N 29°48' W 092°14'2 3.3
2018-Jun-17 15:00N 29°47' W 092°13'0 0.4
2018-Jun-17 14:30N 29°47' W 092°12'1 2.0
2018-Jun-17 14:00N 29°47' W 092°11'0 0.0
2018-Jun-17 13:30N 29°47' W 092°11'1 1.0
2018-Jun-17 13:00N 29°47' W 092°11'3 5.6
2018-Jun-17 12:30N 29°47' W 092°08'2 4.6
2018-Jun-17 12:00N 29°48' W 092°05'3 5.6
2018-Jun-17 11:30N 29°49' W 092°02'3 5.3
2018-Jun-17 11:00N 29°50' W 091°59'1 2.4
2018-Jun-17 10:30N 29°50' W 091°58'0 0.0
2018-Jun-17 10:00N 29°50' W 091°58'0 0.0
2018-Jun-17 09:30N 29°50' W 091°58'0 0.0
2018-Jun-17 09:00N 29°50' W 091°58'0 0.0
2018-Jun-17 08:30N 29°50' W 091°58'0 0.0
2018-Jun-17 08:00N 29°50' W 091°58'0 0.0
2018-Jun-17 07:30N 29°50' W 091°58'2 3.7
2018-Jun-17 06:52N 29°51' W 091°55'  
2018-Jun-12 19:45N 29°51' W 091°55'2 6.2
2018-Jun-12 19:30N 29°51' W 091°56'3 5.9
2018-Jun-12 19:00N 29°50' W 091°60'3 6.0
2018-Jun-12 18:30N 29°49' W 092°03'3 5.8
2018-Jun-12 18:00N 29°48' W 092°06'3 5.9
2018-Jun-12 17:30N 29°47' W 092°09'2 5.0
2018-Jun-12 17:00N 29°47' W 092°12'1 1.3
2018-Jun-12 16:30N 29°47' W 092°13'2 4.1
2018-Jun-12 16:00N 29°48' W 092°15'3 5.5
2018-Jun-12 15:30N 29°50' W 092°18'2 3.9
2018-Jun-12 15:00N 29°51' W 092°20'2 4.2
2018-Jun-12 14:27N 29°52' W 092°22'32 4.9
2018-Jun-12 08:03N 29°56' W 092°58'0 4.2
2018-Jun-12 07:57N 29°56' W 092°59'2 5.0
2018-Jun-12 07:30N 29°56' W 093°01'2 4.3
2018-Jun-12 07:00N 29°56' W 093°04'3 5.1
2018-Jun-12 06:30N 29°56' W 093°07'3 5.2
2018-Jun-12 06:00N 29°56' W 093°10'3 5.1
2018-Jun-12 05:30N 29°58' W 093°11'3 5.2
2018-Jun-12 05:00N 30°00' W 093°14'2 4.7
2018-Jun-12 04:30N 30°02' W 093°15'2 4.4
2018-Jun-12 04:00N 30°04' W 093°16'2 3.3
2018-Jun-12 03:30N 30°05' W 093°17'1 1.3
2018-Jun-12 03:00N 30°06' W 093°18'1 1.0
2018-Jun-12 02:30N 30°06' W 093°18'0 0.0
2018-Jun-12 01:59N 30°06' W 093°18'0 0.0
2018-Jun-12 01:30N 30°06' W 093°18'0 0.0
2018-Jun-12 01:00N 30°06' W 093°18'0 0.0
2018-Jun-12 00:30N 30°06' W 093°18'0 0.0
2018-Jun-12 00:00N 30°06' W 093°18'0 0.0
2018-Jun-11 23:30N 30°06' W 093°18'0 0.0
2018-Jun-11 23:00N 30°06' W 093°18'0 0.0
2018-Jun-11 22:30N 30°06' W 093°18'0 0.1
2018-Jun-11 22:00N 30°06' W 093°18'0 0.0
2018-Jun-11 21:30N 30°06' W 093°18'0 0.0
2018-Jun-11 21:00N 30°06' W 093°18'0 0.0
2018-Jun-11 20:30N 30°06' W 093°18'0 0.0
2018-Jun-11 20:00N 30°06' W 093°18'0 0.0
2018-Jun-11 19:30N 30°06' W 093°18'0 0.0
2018-Jun-11 19:00N 30°06' W 093°18'0 0.0
2018-Jun-11 18:30N 30°06' W 093°18'0 0.0
2018-Jun-11 18:00N 30°06' W 093°18'0 0.1
2018-Jun-11 17:30N 30°06' W 093°18'0 0.1
2018-Jun-11 17:00N 30°06' W 093°18'0 0.0
2018-Jun-11 16:30N 30°06' W 093°18'0 0.0
2018-Jun-11 16:00N 30°06' W 093°18'0 0.0
2018-Jun-11 15:30N 30°06' W 093°18'0 0.0
2018-Jun-11 15:00N 30°06' W 093°18'0 0.0
2018-Jun-11 14:30N 30°06' W 093°18'0 0.0
2018-Jun-11 13:55N 30°06' W 093°18'0 0.0
2018-Jun-11 13:25N 30°06' W 093°18'0 0.0
2018-Jun-11 13:00N 30°06' W 093°18'0 0.0
2018-Jun-11 12:30N 30°06' W 093°18'0 0.0
2018-Jun-11 11:59N 30°06' W 093°18'0 0.0
2018-Jun-11 11:30N 30°06' W 093°18'0 0.0
2018-Jun-11 11:00N 30°06' W 093°18'0 0.0
2018-Jun-11 10:30N 30°06' W 093°18'0 0.0
2018-Jun-11 10:00N 30°06' W 093°18'0 0.0
2018-Jun-11 09:30N 30°06' W 093°18'0 0.1
2018-Jun-11 09:00N 30°06' W 093°18'0 0.0
2018-Jun-11 08:30N 30°06' W 093°18'0 0.0
2018-Jun-11 08:00N 30°06' W 093°18'0 0.0
2018-Jun-11 07:30N 30°06' W 093°18'0 0.0
2018-Jun-11 07:00N 30°06' W 093°18'0 0.0
2018-Jun-11 06:30N 30°06' W 093°18'0 0.0
2018-Jun-11 06:00N 30°06' W 093°18'0 0.0
2018-Jun-11 05:30N 30°06' W 093°18'0 0.0
2018-Jun-11 05:00N 30°06' W 093°18'0 1.0
2018-Jun-11 04:30N 30°06' W 093°19'2 4.0
2018-Jun-11 04:00N 30°05' W 093°20'2 3.5
2018-Jun-11 03:30N 30°04' W 093°22'1 1.9
2018-Jun-11 03:00N 30°04' W 093°23'1 3.0
2018-Jun-11 02:30N 30°04' W 093°25'2 3.8
2018-Jun-11 02:00N 30°04' W 093°27'2 4.7
2018-Jun-11 01:30N 30°04' W 093°30'3 5.4
2018-Jun-11 01:00N 30°04' W 093°33'3 5.1
2018-Jun-11 00:30N 30°04' W 093°36'3 5.3
2018-Jun-11 00:00N 30°04' W 093°39'3 5.4
2018-Jun-10 23:28N 30°03' W 093°42'2 5.1
2018-Jun-10 23:00N 30°02' W 093°44'3 6.0
2018-Jun-10 22:30N 29°60' W 093°47'4 7.5
2018-Jun-10 22:00N 29°58' W 093°51'4 7.4
2018-Jun-10 21:30N 29°59' W 093°55'4 7.7
2018-Jun-10 21:00N 30°01' W 093°59'2 4.1
2018-Jun-10 20:29N 30°01' W 094°02'0 0.0
2018-Jun-10 19:59N 30°01' W 094°02'0 0.2
2018-Jun-10 19:31N 30°01' W 094°02'0 0.2
2018-Jun-10 19:00N 30°01' W 094°01'0 0.1
2018-Jun-10 18:30N 30°01' W 094°02'0 0.0
2018-Jun-10 17:59N 30°01' W 094°02'0 0.0
2018-Jun-10 17:29N 30°01' W 094°02'0 0.0
2018-Jun-10 16:59N 30°01' W 094°02'0 0.0
2018-Jun-10 16:29N 30°01' W 094°02'0 0.0
2018-Jun-10 15:59N 30°01' W 094°02'0 0.0
2018-Jun-10 15:29N 30°01' W 094°02'0 0.0
2018-Jun-10 14:59N 30°01' W 094°02'0 0.0
2018-Jun-10 14:29N 30°01' W 094°02'0 0.0
2018-Jun-10 13:29N 30°01' W 094°02'0 0.0
2018-Jun-10 12:59N 30°01' W 094°02'0 0.0
2018-Jun-10 12:29N 30°01' W 094°02'0 0.0
2018-Jun-10 11:59N 30°01' W 094°02'0 0.0
2018-Jun-10 11:29N 30°01' W 094°02'0 0.0
2018-Jun-10 10:59N 30°01' W 094°02'0 0.0
2018-Jun-10 10:29N 30°01' W 094°02'0 0.0
2018-Jun-10 09:59N 30°01' W 094°02'0 0.0
2018-Jun-10 09:29N 30°01' W 094°02'0 0.0
2018-Jun-10 08:59N 30°01' W 094°02'0 0.0
2018-Jun-10 08:29N 30°01' W 094°02'0 0.0
2018-Jun-10 07:59N 30°01' W 094°02'0 0.1
2018-Jun-10 07:29N 30°01' W 094°01'0 0.1
2018-Jun-10 06:59N 30°01' W 094°02'0 0.0
2018-Jun-10 06:29N 30°01' W 094°02'0 0.0
2018-Jun-10 05:59N 30°01' W 094°02'0 0.0
2018-Jun-10 05:29N 30°01' W 094°02'0 0.0
2018-Jun-10 04:59N 30°01' W 094°02'0 0.0
2018-Jun-10 04:29N 30°01' W 094°02'0 0.0
2018-Jun-10 03:59N 30°01' W 094°02'0 0.0
2018-Jun-10 03:29N 30°01' W 094°02'0 0.0
2018-Jun-10 02:59N 30°01' W 094°02'0 0.0
2018-Jun-10 02:29N 30°01' W 094°02'  
Track history (hours):
 
Tides and Currents Weather Stations Pressure Air Temp Water Temp Dewpoint Dewpoint Depression Visibility Wind Speed Wind Dir Waves Ship Positions

Archie Wilson

Owner: Kirby Inland Marine LP, Houston, TX. More information available from US FCC via Universal Licensing System and Coast Guard Vessel Documentation Center.

Last reported at 2018-Jun-20 02:28 UTC. Time now 2018-Jun-20 22:48 UTC.
Position N 29°46' W 095°05'.

Length 109 m; draft 2.7 m.

Type: . MMSI: 367151380.

Date/timePositionNaut miles runAvg speedWind from/ knotsBaromVisibWave heightAir tempDewpointWater temp
2018-Jun-20 02:28N 29°46' W 095°05'0 0.4
2018-Jun-20 01:48N 29°46' W 095°06'0 0.8
2018-Jun-20 01:28N 29°46' W 095°06'6 6.9
2018-Jun-20 00:40N 29°42' W 095°01'2 8.9
2018-Jun-20 00:29N 29°42' W 094°59'5 9.4
2018-Jun-20 00:00N 29°37' W 094°57'1310.1
2018-Jun-19 22:44N 29°26' W 094°50'210.3
2018-Jun-19 22:29N 29°24' W 094°49'3 5.2
2018-Jun-19 21:59N 29°23' W 094°46'3 6.2
2018-Jun-19 21:30N 29°25' W 094°44'7 6.5
2018-Jun-19 20:21N 29°29' W 094°36'5 7.5
2018-Jun-19 19:45N 29°31' W 094°31'2 7.4
2018-Jun-19 19:28N 29°32' W 094°29'3 7.1
2018-Jun-19 19:00N 29°34' W 094°26'2 3.5
2018-Jun-19 18:30N 29°35' W 094°25'0 0.4
2018-Jun-19 18:00N 29°35' W 094°25'3 6.1
2018-Jun-19 17:30N 29°36' W 094°22'4 7.9
2018-Jun-19 17:00N 29°38' W 094°18'4 8.0
2018-Jun-19 16:30N 29°40' W 094°14'4 8.0
2018-Jun-19 16:00N 29°42' W 094°09'4 8.2
2018-Jun-19 15:30N 29°44' W 094°06'4 8.2
2018-Jun-19 15:00N 29°47' W 094°02'4 7.5
2018-Jun-19 14:30N 29°49' W 093°59'3 6.6
2018-Jun-19 14:00N 29°52' W 093°56'4 8.8
2018-Jun-19 13:30N 29°55' W 093°53'2 3.6
2018-Jun-19 13:00N 29°57' W 093°52'3 6.7
2018-Jun-19 12:30N 29°59' W 093°49'5 9.7
2018-Jun-19 12:00N 30°01' W 093°44'4 7.4
2018-Jun-19 11:30N 30°04' W 093°41'3 6.3
2018-Jun-19 11:00N 30°04' W 093°37'3 6.3
2018-Jun-19 10:29N 30°04' W 093°34'3 6.2
2018-Jun-19 10:00N 30°04' W 093°30'1 1.6
2018-Jun-19 09:30N 30°04' W 093°29'0 0.0
2018-Jun-19 09:00N 30°04' W 093°29'0 0.0
2018-Jun-19 08:30N 30°04' W 093°29'0 0.1
2018-Jun-19 08:00N 30°04' W 093°29'1 2.5
2018-Jun-19 07:30N 30°04' W 093°28'2 4.6
2018-Jun-19 07:00N 30°04' W 093°25'2 3.7
2018-Jun-19 06:30N 30°04' W 093°23'2 3.2
2018-Jun-19 06:00N 30°04' W 093°21'2 3.5
2018-Jun-19 05:30N 30°05' W 093°20'1 3.0
2018-Jun-19 05:00N 30°06' W 093°18'1 2.0
2018-Jun-19 04:30N 30°05' W 093°17'1 1.6
2018-Jun-19 04:00N 30°05' W 093°17'1 1.4
2018-Jun-19 03:30N 30°04' W 093°16'0 0.3
2018-Jun-19 03:00N 30°04' W 093°16'0 0.0
2018-Jun-19 02:30N 30°04' W 093°16'0 0.0
2018-Jun-19 02:00N 30°04' W 093°16'0 0.0
2018-Jun-19 01:30N 30°04' W 093°16'0 0.0
2018-Jun-19 01:00N 30°04' W 093°16'0 0.0
2018-Jun-19 00:30N 30°04' W 093°16'0 0.0
2018-Jun-19 00:00N 30°04' W 093°16'0 0.0
2018-Jun-18 23:30N 30°04' W 093°16'0 0.0
2018-Jun-18 23:00N 30°04' W 093°16'0 0.0
2018-Jun-18 22:30N 30°04' W 093°16'0 0.0
2018-Jun-18 22:00N 30°04' W 093°16'0 0.0
2018-Jun-18 21:30N 30°04' W 093°16'0 0.0
2018-Jun-18 21:01N 30°04' W 093°16'0 0.0
2018-Jun-18 20:30N 30°04' W 093°16'0 0.0
2018-Jun-18 20:00N 30°04' W 093°16'0 0.0
2018-Jun-18 19:30N 30°04' W 093°16'0 0.0
2018-Jun-18 19:00N 30°04' W 093°16'0 0.0
2018-Jun-18 18:30N 30°04' W 093°16'0 0.0
2018-Jun-18 18:00N 30°04' W 093°16'0 0.0
2018-Jun-18 17:30N 30°04' W 093°16'0 0.0
2018-Jun-18 17:00N 30°04' W 093°16'0 0.0
2018-Jun-18 16:30N 30°04' W 093°16'0 0.0
2018-Jun-18 16:00N 30°04' W 093°16'0 0.0
2018-Jun-18 15:30N 30°04' W 093°16'0 0.0
2018-Jun-18 15:00N 30°04' W 093°16'0 0.0
2018-Jun-18 14:30N 30°04' W 093°16'0 0.0
2018-Jun-18 14:00N 30°04' W 093°16'0 0.0
2018-Jun-18 13:30N 30°04' W 093°16'0 0.0
2018-Jun-18 13:00N 30°04' W 093°16'0 0.0
2018-Jun-18 12:30N 30°04' W 093°16'0 0.5
2018-Jun-18 12:00N 30°04' W 093°16'1 2.9
2018-Jun-18 11:30N 30°02' W 093°16'3 5.2
2018-Jun-18 11:00N 30°00' W 093°14'2 4.0
2018-Jun-18 10:30N 29°59' W 093°12'0 0.1
2018-Jun-18 10:00N 29°59' W 093°12'0 0.1
2018-Jun-18 09:30N 29°59' W 093°12'0 0.0
2018-Jun-18 09:00N 29°59' W 093°12'0 0.0
2018-Jun-18 08:30N 29°59' W 093°12'0 0.0
2018-Jun-18 08:00N 29°59' W 093°12'0 0.0
2018-Jun-18 07:30N 29°59' W 093°12'0 0.0
2018-Jun-18 07:00N 29°59' W 093°12'0 0.1
2018-Jun-18 06:30N 29°59' W 093°12'3 5.1
2018-Jun-18 06:00N 29°57' W 093°10'3 5.1
2018-Jun-18 05:29N 29°56' W 093°07'3 5.4
2018-Jun-18 04:59N 29°56' W 093°04'32 3.0
2018-Jun-17 18:31N 29°54' W 092°28'0 5.7
2018-Jun-17 18:30N 29°54' W 092°28'3 5.8
2018-Jun-17 18:00N 29°53' W 092°24'3 5.3
2018-Jun-17 17:26N 29°51' W 092°22'2 4.7
2018-Jun-17 16:59N 29°50' W 092°19'0 0.4
2018-Jun-17 16:30N 29°50' W 092°19'2 4.5
2018-Jun-17 16:01N 29°49' W 092°17'3 5.6
2018-Jun-17 15:30N 29°48' W 092°14'2 3.3
2018-Jun-17 15:00N 29°47' W 092°13'0 0.4
2018-Jun-17 14:30N 29°47' W 092°12'1 2.0
2018-Jun-17 14:00N 29°47' W 092°11'0 0.0
2018-Jun-17 13:30N 29°47' W 092°11'1 1.0
2018-Jun-17 13:00N 29°47' W 092°11'3 5.6
2018-Jun-17 12:30N 29°47' W 092°08'2 4.6
2018-Jun-17 12:00N 29°48' W 092°05'3 5.6
2018-Jun-17 11:30N 29°49' W 092°02'3 5.3
2018-Jun-17 11:00N 29°50' W 091°59'1 2.4
2018-Jun-17 10:30N 29°50' W 091°58'0 0.0
2018-Jun-17 10:00N 29°50' W 091°58'0 0.0
2018-Jun-17 09:30N 29°50' W 091°58'0 0.0
2018-Jun-17 09:00N 29°50' W 091°58'0 0.0
2018-Jun-17 08:30N 29°50' W 091°58'0 0.0
2018-Jun-17 08:00N 29°50' W 091°58'0 0.0
2018-Jun-17 07:30N 29°50' W 091°58'2 3.7
2018-Jun-17 06:52N 29°51' W 091°55'  
2018-Jun-12 19:45N 29°51' W 091°55'2 6.2
2018-Jun-12 19:30N 29°51' W 091°56'3 5.9
2018-Jun-12 19:00N 29°50' W 091°60'3 6.0
2018-Jun-12 18:30N 29°49' W 092°03'3 5.8
2018-Jun-12 18:00N 29°48' W 092°06'3 5.9
2018-Jun-12 17:30N 29°47' W 092°09'2 5.0
2018-Jun-12 17:00N 29°47' W 092°12'1 1.3
2018-Jun-12 16:30N 29°47' W 092°13'2 4.1
2018-Jun-12 16:00N 29°48' W 092°15'3 5.5
2018-Jun-12 15:30N 29°50' W 092°18'2 3.9
2018-Jun-12 15:00N 29°51' W 092°20'2 4.2
2018-Jun-12 14:27N 29°52' W 092°22'32 4.9
2018-Jun-12 08:03N 29°56' W 092°58'0 4.2
2018-Jun-12 07:57N 29°56' W 092°59'2 5.0
2018-Jun-12 07:30N 29°56' W 093°01'2 4.3
2018-Jun-12 07:00N 29°56' W 093°04'3 5.1
2018-Jun-12 06:30N 29°56' W 093°07'3 5.2
2018-Jun-12 06:00N 29°56' W 093°10'3 5.1
2018-Jun-12 05:30N 29°58' W 093°11'3 5.2
2018-Jun-12 05:00N 30°00' W 093°14'2 4.7
2018-Jun-12 04:30N 30°02' W 093°15'2 4.4
2018-Jun-12 04:00N 30°04' W 093°16'2 3.3
2018-Jun-12 03:30N 30°05' W 093°17'1 1.3
2018-Jun-12 03:00N 30°06' W 093°18'1 1.0
2018-Jun-12 02:30N 30°06' W 093°18'0 0.0
2018-Jun-12 01:59N 30°06' W 093°18'0 0.0
2018-Jun-12 01:30N 30°06' W 093°18'0 0.0
2018-Jun-12 01:00N 30°06' W 093°18'0 0.0
2018-Jun-12 00:30N 30°06' W 093°18'0 0.0
2018-Jun-12 00:00N 30°06' W 093°18'0 0.0
2018-Jun-11 23:30N 30°06' W 093°18'0 0.0
2018-Jun-11 23:00N 30°06' W 093°18'0 0.0
2018-Jun-11 22:30N 30°06' W 093°18'0 0.1
2018-Jun-11 22:00N 30°06' W 093°18'0 0.0
2018-Jun-11 21:30N 30°06' W 093°18'0 0.0
2018-Jun-11 21:00N 30°06' W 093°18'0 0.0
2018-Jun-11 20:30N 30°06' W 093°18'0 0.0
2018-Jun-11 20:00N 30°06' W 093°18'0 0.0
2018-Jun-11 19:30N 30°06' W 093°18'0 0.0
2018-Jun-11 19:00N 30°06' W 093°18'0 0.0
2018-Jun-11 18:30N 30°06' W 093°18'0 0.0
2018-Jun-11 18:00N 30°06' W 093°18'0 0.1
2018-Jun-11 17:30N 30°06' W 093°18'0 0.1
2018-Jun-11 17:00N 30°06' W 093°18'0 0.0
2018-Jun-11 16:30N 30°06' W 093°18'0 0.0
2018-Jun-11 16:00N 30°06' W 093°18'0 0.0
2018-Jun-11 15:30N 30°06' W 093°18'0 0.0
2018-Jun-11 15:00N 30°06' W 093°18'0 0.0
2018-Jun-11 14:30N 30°06' W 093°18'0 0.0
2018-Jun-11 13:55N 30°06' W 093°18'0 0.0
2018-Jun-11 13:25N 30°06' W 093°18'0 0.0
2018-Jun-11 13:00N 30°06' W 093°18'0 0.0
2018-Jun-11 12:30N 30°06' W 093°18'0 0.0
2018-Jun-11 11:59N 30°06' W 093°18'0 0.0
2018-Jun-11 11:30N 30°06' W 093°18'0 0.0
2018-Jun-11 11:00N 30°06' W 093°18'0 0.0
2018-Jun-11 10:30N 30°06' W 093°18'0 0.0
2018-Jun-11 10:00N 30°06' W 093°18'0 0.0
2018-Jun-11 09:30N 30°06' W 093°18'0 0.1
2018-Jun-11 09:00N 30°06' W 093°18'0 0.0
2018-Jun-11 08:30N 30°06' W 093°18'0 0.0
2018-Jun-11 08:00N 30°06' W 093°18'0 0.0
2018-Jun-11 07:30N 30°06' W 093°18'0 0.0
2018-Jun-11 07:00N 30°06' W 093°18'0 0.0
2018-Jun-11 06:30N 30°06' W 093°18'0 0.0
2018-Jun-11 06:00N 30°06' W 093°18'0 0.0
2018-Jun-11 05:30N 30°06' W 093°18'0 0.0
2018-Jun-11 05:00N 30°06' W 093°18'0 1.0
2018-Jun-11 04:30N 30°06' W 093°19'2 4.0
2018-Jun-11 04:00N 30°05' W 093°20'2 3.5
2018-Jun-11 03:30N 30°04' W 093°22'1 1.9
2018-Jun-11 03:00N 30°04' W 093°23'1 3.0
2018-Jun-11 02:30N 30°04' W 093°25'2 3.8
2018-Jun-11 02:00N 30°04' W 093°27'2 4.7
2018-Jun-11 01:30N 30°04' W 093°30'3 5.4
2018-Jun-11 01:00N 30°04' W 093°33'3 5.1
2018-Jun-11 00:30N 30°04' W 093°36'3 5.3
2018-Jun-11 00:00N 30°04' W 093°39'3 5.4
2018-Jun-10 23:28N 30°03' W 093°42'2 5.1
2018-Jun-10 23:00N 30°02' W 093°44'3 6.0
2018-Jun-10 22:30N 29°60' W 093°47'4 7.5
2018-Jun-10 22:00N 29°58' W 093°51'4 7.4
2018-Jun-10 21:30N 29°59' W 093°55'4 7.7
2018-Jun-10 21:00N 30°01' W 093°59'2 4.1
2018-Jun-10 20:29N 30°01' W 094°02'0 0.0
2018-Jun-10 19:59N 30°01' W 094°02'0 0.2
2018-Jun-10 19:31N 30°01' W 094°02'0 0.2
2018-Jun-10 19:00N 30°01' W 094°01'0 0.1
2018-Jun-10 18:30N 30°01' W 094°02'0 0.0
2018-Jun-10 17:59N 30°01' W 094°02'0 0.0
2018-Jun-10 17:29N 30°01' W 094°02'0 0.0
2018-Jun-10 16:59N 30°01' W 094°02'0 0.0
2018-Jun-10 16:29N 30°01' W 094°02'0 0.0
2018-Jun-10 15:59N 30°01' W 094°02'0 0.0
2018-Jun-10 15:29N 30°01' W 094°02'0 0.0
2018-Jun-10 14:59N 30°01' W 094°02'0 0.0
2018-Jun-10 14:29N 30°01' W 094°02'0 0.0
2018-Jun-10 13:29N 30°01' W 094°02'0 0.0
2018-Jun-10 12:59N 30°01' W 094°02'0 0.0
2018-Jun-10 12:29N 30°01' W 094°02'0 0.0
2018-Jun-10 11:59N 30°01' W 094°02'0 0.0
2018-Jun-10 11:29N 30°01' W 094°02'0 0.0
2018-Jun-10 10:59N 30°01' W 094°02'0 0.0
2018-Jun-10 10:29N 30°01' W 094°02'0 0.0
2018-Jun-10 09:59N 30°01' W 094°02'0 0.0
2018-Jun-10 09:29N 30°01' W 094°02'0 0.0
2018-Jun-10 08:59N 30°01' W 094°02'0 0.0
2018-Jun-10 08:29N 30°01' W 094°02'0 0.0
2018-Jun-10 07:59N 30°01' W 094°02'0 0.1
2018-Jun-10 07:29N 30°01' W 094°01'0 0.1
2018-Jun-10 06:59N 30°01' W 094°02'0 0.0
2018-Jun-10 06:29N 30°01' W 094°02'0 0.0
2018-Jun-10 05:59N 30°01' W 094°02'0 0.0
2018-Jun-10 05:29N 30°01' W 094°02'0 0.0
2018-Jun-10 04:59N 30°01' W 094°02'0 0.0
2018-Jun-10 04:29N 30°01' W 094°02'0 0.0
2018-Jun-10 03:59N 30°01' W 094°02'0 0.0
2018-Jun-10 03:29N 30°01' W 094°02'0 0.0
2018-Jun-10 02:59N 30°01' W 094°02'0 0.0
2018-Jun-10 02:29N 30°01' W 094°02'  

Dump ship's entire track history